createdAt,value
2022-11-06T00:00:41.693Z,6.49
2022-11-06T00:01:41.762Z,6.35
2022-11-06T00:02:41.755Z,6.42
2022-11-06T00:03:41.683Z,6.34
2022-11-06T00:04:41.721Z,6.37
2022-11-06T00:05:41.736Z,6.35
2022-11-06T00:06:41.667Z,6.46
2022-11-06T00:07:41.642Z,6.37
2022-11-06T00:08:41.692Z,6.32
2022-11-06T00:09:41.643Z,6.43
2022-11-06T00:10:41.608Z,6.31
2022-11-06T00:11:41.621Z,6.38
2022-11-06T00:12:41.607Z,6.42
2022-11-06T00:13:41.618Z,6.42
2022-11-06T00:14:41.590Z,6.46
2022-11-06T00:15:41.636Z,6.57
2022-11-06T00:16:41.580Z,6.43
2022-11-06T00:17:41.580Z,6.60
2022-11-06T00:18:41.572Z,6.57
2022-11-06T00:19:41.572Z,6.50
2022-11-06T00:20:41.576Z,6.53
2022-11-06T00:21:41.551Z,6.56
2022-11-06T00:22:41.544Z,6.61
2022-11-06T00:23:41.527Z,6.52
2022-11-06T00:24:41.647Z,6.45
2022-11-06T00:25:41.518Z,6.57
2022-11-06T00:26:41.511Z,6.46
2022-11-06T00:27:41.529Z,6.55
2022-11-06T00:28:41.502Z,6.57
2022-11-06T00:29:41.494Z,6.60
2022-11-06T00:30:41.599Z,6.52
2022-11-06T00:31:41.501Z,6.45
2022-11-06T00:32:41.493Z,6.46
2022-11-06T00:33:41.475Z,6.49
2022-11-06T00:34:41.457Z,6.38
2022-11-06T00:35:41.475Z,6.35
2022-11-06T00:36:41.994Z,6.42
2022-11-06T00:37:41.441Z,6.35
2022-11-06T00:38:41.453Z,6.38
2022-11-06T00:39:41.447Z,6.32
2022-11-06T00:40:41.439Z,6.21
2022-11-06T00:41:41.522Z,6.28
2022-11-06T00:42:41.421Z,6.24
2022-11-06T00:43:41.434Z,6.28
2022-11-06T00:44:41.397Z,6.24
2022-11-06T00:45:41.396Z,6.21
2022-11-06T00:46:41.410Z,6.15
2022-11-06T00:47:41.380Z,6.13
2022-11-06T00:48:41.383Z,6.18
2022-11-06T00:49:41.375Z,6.24
2022-11-06T00:50:41.389Z,6.11
2022-11-06T00:51:41.386Z,6.28
2022-11-06T00:52:41.396Z,6.03
2022-11-06T00:53:41.344Z,6.15
2022-11-06T00:54:41.332Z,6.18
2022-11-06T00:55:41.351Z,6.12
2022-11-06T00:56:41.335Z,6.05
2022-11-06T00:57:41.349Z,6.02
2022-11-06T00:58:41.327Z,6.13
2022-11-06T00:59:41.496Z,6.02
2022-11-06T01:00:41.307Z,6.06
2022-11-06T01:01:41.467Z,6.12
2022-11-06T01:02:41.494Z,6.09
2022-11-06T01:03:41.324Z,6.12
2022-11-06T01:04:41.283Z,6.18
2022-11-06T01:05:41.292Z,6.15
2022-11-06T01:06:41.265Z,6.13
2022-11-06T01:07:41.266Z,6.16
2022-11-06T01:08:41.313Z,6.21
2022-11-06T01:09:41.269Z,6.24
2022-11-06T01:10:42.231Z,6.24
2022-11-06T01:12:10.908Z,6.30
2022-11-06T01:12:43.221Z,6.50
2022-11-06T01:13:41.224Z,6.49
2022-11-06T01:14:41.319Z,6.43
2022-11-06T01:15:41.220Z,6.56
2022-11-06T01:16:41.196Z,6.57
2022-11-06T01:17:41.202Z,6.71
2022-11-06T01:18:41.216Z,6.55
2022-11-06T01:19:41.213Z,6.57
2022-11-06T01:20:41.190Z,6.63
2022-11-06T01:21:41.199Z,6.61
2022-11-06T01:22:41.168Z,6.61
2022-11-06T01:23:41.179Z,6.60
2022-11-06T01:24:41.209Z,6.60
2022-11-06T01:25:41.162Z,6.64
2022-11-06T01:26:58.507Z,6.64
2022-11-06T01:27:42.145Z,6.71
2022-11-06T01:28:41.120Z,6.67
2022-11-06T01:29:41.148Z,6.73
2022-11-06T01:30:41.152Z,6.65
2022-11-06T01:31:41.120Z,6.71
2022-11-06T01:32:41.133Z,6.70
2022-11-06T01:33:41.130Z,6.73
2022-11-06T01:34:41.100Z,6.75
2022-11-06T01:35:41.087Z,6.64
2022-11-06T01:36:41.113Z,6.73
2022-11-06T01:37:41.083Z,6.83
2022-11-06T01:38:41.100Z,6.73
2022-11-06T01:39:41.068Z,6.74
2022-11-06T01:40:41.060Z,6.71
2022-11-06T01:41:41.168Z,6.57
2022-11-06T01:42:41.055Z,6.61
2022-11-06T01:43:41.142Z,6.68
2022-11-06T01:44:41.041Z,6.67
2022-11-06T01:45:41.034Z,6.57
2022-11-06T01:46:41.034Z,6.73
2022-11-06T01:47:41.160Z,6.70
2022-11-06T01:48:41.019Z,6.68
2022-11-06T01:49:40.996Z,6.63
2022-11-06T01:50:41.076Z,6.55
2022-11-06T01:51:41.009Z,6.57
2022-11-06T01:52:41.010Z,6.57
2022-11-06T01:53:40.972Z,6.55
2022-11-06T01:54:40.992Z,6.57
2022-11-06T01:55:40.967Z,6.49
2022-11-06T01:56:40.968Z,6.56
2022-11-06T01:57:40.945Z,6.60
2022-11-06T01:58:41.068Z,6.67
2022-11-06T01:59:40.956Z,6.64
2022-11-06T02:00:40.941Z,6.53
2022-11-06T02:01:41.033Z,6.63
2022-11-06T02:02:41.059Z,6.53
2022-11-06T02:03:40.951Z,6.50
2022-11-06T02:04:40.907Z,6.50
2022-11-06T02:05:40.912Z,6.37
2022-11-06T02:06:40.905Z,6.32
2022-11-06T02:07:40.869Z,6.38
2022-11-06T02:08:40.900Z,6.38
2022-11-06T02:09:40.905Z,6.16
2022-11-06T02:10:40.883Z,6.24
2022-11-06T02:11:40.872Z,6.30
2022-11-06T02:12:40.883Z,6.16
2022-11-06T02:13:40.858Z,6.18
2022-11-06T02:14:40.895Z,6.27
2022-11-06T02:15:40.841Z,6.19
2022-11-06T02:16:40.830Z,6.31
2022-11-06T02:17:40.816Z,6.13
2022-11-06T02:18:40.840Z,6.02
2022-11-06T02:19:40.822Z,6.03
2022-11-06T02:20:40.837Z,6.02
2022-11-06T02:21:40.818Z,6.11
2022-11-06T02:22:40.819Z,6.09
2022-11-06T02:23:40.786Z,5.90
2022-11-06T02:24:40.785Z,6.02
2022-11-06T02:25:40.800Z,5.88
2022-11-06T02:26:40.772Z,5.82
2022-11-06T02:27:40.775Z,5.80
2022-11-06T02:28:40.762Z,5.82
2022-11-06T02:29:40.748Z,5.97
2022-11-06T02:30:40.755Z,5.97
2022-11-06T02:31:40.764Z,5.97
2022-11-06T02:32:41.752Z,5.93
2022-11-06T02:33:40.745Z,5.90
2022-11-06T02:34:40.716Z,5.88
2022-11-06T02:35:40.708Z,5.79
2022-11-06T02:36:40.811Z,5.87
2022-11-06T02:37:40.719Z,5.93
2022-11-06T02:38:40.686Z,5.85
2022-11-06T02:39:40.689Z,5.76
2022-11-06T02:40:40.702Z,5.85
2022-11-06T02:41:40.680Z,5.87
2022-11-06T02:42:40.693Z,5.76
2022-11-06T02:43:40.667Z,5.79
2022-11-06T02:44:41.645Z,5.65
2022-11-06T02:45:40.641Z,5.57
2022-11-06T02:46:40.649Z,5.55
2022-11-06T02:47:40.755Z,5.59
2022-11-06T02:48:40.625Z,5.57
2022-11-06T02:49:40.604Z,5.59
2022-11-06T02:50:40.610Z,5.44
2022-11-06T02:51:40.624Z,5.47
2022-11-06T02:52:40.609Z,5.50
2022-11-06T02:53:40.704Z,5.55
2022-11-06T02:54:40.586Z,5.57
2022-11-06T02:55:40.593Z,5.39
2022-11-06T02:56:40.588Z,5.30
2022-11-06T02:57:40.566Z,5.41
2022-11-06T02:58:43.606Z,5.29
2022-11-06T02:59:41.573Z,5.37
2022-11-06T03:00:40.559Z,5.32
2022-11-06T03:01:40.653Z,5.41
2022-11-06T03:02:40.849Z,5.36
2022-11-06T03:03:40.528Z,5.43
2022-11-06T03:04:40.552Z,5.32
2022-11-06T03:05:40.512Z,5.39
2022-11-06T03:06:40.515Z,5.33
2022-11-06T03:07:40.510Z,5.33
2022-11-06T03:08:40.512Z,5.37
2022-11-06T03:09:40.559Z,5.30
2022-11-06T03:10:40.484Z,5.25
2022-11-06T03:11:40.475Z,5.18
2022-11-06T03:12:41.474Z,5.09
2022-11-06T03:13:40.462Z,5.06
2022-11-06T03:14:40.459Z,5.04
2022-11-06T03:15:40.484Z,5.01
2022-11-06T03:16:40.433Z,4.96
2022-11-06T03:17:40.439Z,4.88
2022-11-06T03:18:40.431Z,4.98
2022-11-06T03:19:40.423Z,5.00
2022-11-06T03:20:40.450Z,5.00
2022-11-06T03:21:40.429Z,4.96
2022-11-06T03:22:40.419Z,4.96
2022-11-06T03:23:40.402Z,4.94
2022-11-06T03:24:40.411Z,4.89
2022-11-06T03:25:40.397Z,4.93
2022-11-06T03:26:40.404Z,4.85
2022-11-06T03:27:40.378Z,4.88
2022-11-06T03:28:40.379Z,4.93
2022-11-06T03:29:40.349Z,4.88
2022-11-06T03:30:40.347Z,4.86
2022-11-06T03:31:40.384Z,4.83
2022-11-06T03:32:40.338Z,4.83
2022-11-06T03:33:40.341Z,4.86
2022-11-06T03:34:40.325Z,4.79
2022-11-06T03:35:40.318Z,4.85
2022-11-06T03:36:40.311Z,4.79
2022-11-06T03:37:40.336Z,4.88
2022-11-06T03:38:42.455Z,4.86
2022-11-06T03:39:41.296Z,4.79
2022-11-06T03:40:40.299Z,4.79
2022-11-06T03:41:40.297Z,4.74
2022-11-06T03:42:40.307Z,4.82
2022-11-06T03:43:40.270Z,4.66
2022-11-06T03:44:40.268Z,4.71
2022-11-06T03:45:40.249Z,4.82
2022-11-06T03:46:40.257Z,4.71
2022-11-06T03:47:40.242Z,4.69
2022-11-06T03:48:40.257Z,4.74
2022-11-06T03:49:40.222Z,4.66
2022-11-06T03:50:40.241Z,4.75
2022-11-06T03:51:40.221Z,4.77
2022-11-06T03:52:42.519Z,4.85
2022-11-06T03:53:40.246Z,4.79
2022-11-06T03:54:40.210Z,4.88
2022-11-06T03:55:40.213Z,4.83
2022-11-06T03:56:40.200Z,4.94
2022-11-06T03:57:40.187Z,4.93
2022-11-06T03:58:40.233Z,4.89
2022-11-06T03:59:40.188Z,4.94
2022-11-06T04:00:40.155Z,4.85
2022-11-06T04:01:40.303Z,4.89
2022-11-06T04:02:40.302Z,4.89
2022-11-06T04:03:40.146Z,4.93
2022-11-06T04:04:40.166Z,4.98
2022-11-06T04:05:40.126Z,4.96
2022-11-06T04:06:40.121Z,4.88
2022-11-06T04:07:40.121Z,4.97
2022-11-06T04:08:40.118Z,4.91
2022-11-06T04:09:40.115Z,4.88
2022-11-06T04:10:40.116Z,4.85
2022-11-06T04:11:40.105Z,4.85
2022-11-06T04:12:40.088Z,4.88
2022-11-06T04:13:40.113Z,4.98
2022-11-06T04:14:40.081Z,4.94
2022-11-06T04:15:40.090Z,4.97
2022-11-06T04:16:40.058Z,4.88
2022-11-06T04:17:40.057Z,5.04
2022-11-06T04:18:40.060Z,4.97
2022-11-06T04:19:40.045Z,5.01
2022-11-06T04:20:40.090Z,5.14
2022-11-06T04:21:40.088Z,5.09
2022-11-06T04:22:40.058Z,5.11
2022-11-06T04:23:40.021Z,5.14
2022-11-06T04:24:40.010Z,5.09
2022-11-06T04:25:39.992Z,5.19
2022-11-06T04:26:40.025Z,5.09
2022-11-06T04:27:39.990Z,5.09
2022-11-06T04:28:39.985Z,5.18
2022-11-06T04:29:39.978Z,5.15
2022-11-06T04:30:39.957Z,5.06
2022-11-06T04:31:39.975Z,5.14
2022-11-06T04:32:40.068Z,5.11
2022-11-06T04:33:39.934Z,5.04
2022-11-06T04:34:39.950Z,4.98
2022-11-06T04:35:39.952Z,5.14
2022-11-06T04:36:39.929Z,5.01
2022-11-06T04:37:39.943Z,5.11
2022-11-06T04:38:39.921Z,5.01
2022-11-06T04:39:39.901Z,5.14
2022-11-06T04:40:39.889Z,5.12
2022-11-06T04:41:39.887Z,5.01
2022-11-06T04:42:39.898Z,5.01
2022-11-06T04:43:39.989Z,5.04
2022-11-06T04:44:39.852Z,5.09
2022-11-06T04:45:39.877Z,4.98
2022-11-06T04:46:39.857Z,4.94
2022-11-06T04:47:39.850Z,5.01
2022-11-06T04:48:39.941Z,4.93
2022-11-06T04:49:39.863Z,4.79
2022-11-06T04:50:39.863Z,4.88
2022-11-06T04:51:39.841Z,4.96
2022-11-06T04:52:39.811Z,4.97
2022-11-06T04:53:39.801Z,5.00
2022-11-06T04:54:39.848Z,5.07
2022-11-06T04:55:39.805Z,5.09
2022-11-06T04:56:44.702Z,5.06
2022-11-06T04:57:39.797Z,4.93
2022-11-06T04:58:39.786Z,5.00
2022-11-06T04:59:39.797Z,4.93
2022-11-06T05:00:39.776Z,4.97
2022-11-06T05:01:39.962Z,4.86
2022-11-06T05:02:39.761Z,4.86
2022-11-06T05:03:39.743Z,4.75
2022-11-06T05:04:39.756Z,4.94
2022-11-06T05:05:39.769Z,4.86
2022-11-06T05:06:39.747Z,4.82
2022-11-06T05:07:39.729Z,4.91
2022-11-06T05:08:39.711Z,4.98
2022-11-06T05:09:39.706Z,4.79
2022-11-06T05:10:39.713Z,4.77
2022-11-06T05:11:39.699Z,4.79
2022-11-06T05:12:39.694Z,4.78
2022-11-06T05:13:39.690Z,4.75
2022-11-06T05:14:39.682Z,4.67
2022-11-06T05:15:39.671Z,4.71
2022-11-06T05:16:39.785Z,4.64
2022-11-06T05:17:39.668Z,4.69
2022-11-06T05:18:39.648Z,4.75
2022-11-06T05:19:39.665Z,4.77
2022-11-06T05:20:39.629Z,4.93
2022-11-06T05:21:39.637Z,4.93
2022-11-06T05:22:39.617Z,4.94
2022-11-06T05:23:39.616Z,4.96
2022-11-06T05:24:39.607Z,5.06
2022-11-06T05:25:39.609Z,4.88
2022-11-06T05:26:39.589Z,4.96
2022-11-06T05:27:39.675Z,5.11
2022-11-06T05:28:39.577Z,5.15
2022-11-06T05:29:39.591Z,5.04
2022-11-06T05:30:39.589Z,5.09
2022-11-06T05:31:39.644Z,4.96
2022-11-06T05:32:40.591Z,5.00
2022-11-06T05:33:39.537Z,4.94
2022-11-06T05:34:39.536Z,5.04
2022-11-06T05:35:39.542Z,5.01
2022-11-06T05:36:39.532Z,4.94
2022-11-06T05:37:39.555Z,5.01
2022-11-06T05:38:39.580Z,4.97
2022-11-06T05:39:41.999Z,5.03
2022-11-06T05:40:40.499Z,4.93
2022-11-06T05:41:39.504Z,5.14
2022-11-06T05:42:39.494Z,5.09
2022-11-06T05:43:39.589Z,5.12
2022-11-06T05:44:39.479Z,5.09
2022-11-06T05:45:39.463Z,5.11
2022-11-06T05:46:54.850Z,5.09
2022-11-06T05:47:41.469Z,5.11
2022-11-06T05:48:39.464Z,5.15
2022-11-06T05:49:39.483Z,5.24
2022-11-06T05:50:39.433Z,5.18
2022-11-06T05:51:39.445Z,5.36
2022-11-06T05:52:39.430Z,5.32
2022-11-06T05:53:39.412Z,5.34
2022-11-06T05:54:39.529Z,5.40
2022-11-06T05:55:39.413Z,5.44
2022-11-06T05:56:39.391Z,5.52
2022-11-06T05:57:39.651Z,5.52
2022-11-06T05:58:40.160Z,5.55
2022-11-06T05:59:39.379Z,5.51
2022-11-06T06:00:39.478Z,5.65
2022-11-06T06:01:39.536Z,5.66
2022-11-06T06:02:39.544Z,5.65
2022-11-06T06:03:40.171Z,5.67
2022-11-06T06:04:39.351Z,5.61
2022-11-06T06:05:39.373Z,5.65
2022-11-06T06:06:39.362Z,5.57
2022-11-06T06:07:39.317Z,5.50
2022-11-06T06:08:39.327Z,5.67
2022-11-06T06:09:39.328Z,5.79
2022-11-06T06:10:39.313Z,5.59
2022-11-06T06:11:39.342Z,5.76
2022-11-06T06:12:39.314Z,5.72
2022-11-06T06:13:39.280Z,5.85
2022-11-06T06:14:39.295Z,5.82
2022-11-06T06:15:39.293Z,5.77
2022-11-06T06:16:39.398Z,5.76
2022-11-06T06:17:39.258Z,5.94
2022-11-06T06:18:39.252Z,5.94
2022-11-06T06:19:39.251Z,5.94
2022-11-06T06:20:39.240Z,6.03
2022-11-06T06:21:39.241Z,6.03
2022-11-06T06:22:39.364Z,5.88
2022-11-06T06:23:39.225Z,6.05
2022-11-06T06:24:39.265Z,6.11
2022-11-06T06:25:39.204Z,6.16
2022-11-06T06:26:39.215Z,6.06
2022-11-06T06:27:39.223Z,5.91
2022-11-06T06:28:39.202Z,6.00
2022-11-06T06:29:39.193Z,6.02
2022-11-06T06:30:39.276Z,5.88
2022-11-06T06:31:39.168Z,5.93
2022-11-06T06:32:39.182Z,6.05
2022-11-06T06:33:39.237Z,6.05
2022-11-06T06:34:39.159Z,6.02
2022-11-06T06:35:39.138Z,6.03
2022-11-06T06:36:39.125Z,6.05
2022-11-06T06:37:39.133Z,6.15
2022-11-06T06:38:39.167Z,6.12
2022-11-06T06:39:39.132Z,6.12
2022-11-06T06:40:39.113Z,6.18
2022-11-06T06:41:39.099Z,6.15
2022-11-06T06:42:39.095Z,6.25
2022-11-06T06:43:39.105Z,6.19
2022-11-06T06:44:39.078Z,6.18
2022-11-06T06:45:39.075Z,6.27
2022-11-06T06:46:39.086Z,6.25
2022-11-06T06:47:39.085Z,6.15
2022-11-06T06:48:39.061Z,6.31
2022-11-06T06:49:39.092Z,6.30
2022-11-06T06:50:39.057Z,6.40
2022-11-06T06:51:39.078Z,6.43
2022-11-06T06:52:39.039Z,6.35
2022-11-06T06:53:39.039Z,6.60
2022-11-06T06:54:39.103Z,6.46
2022-11-06T06:55:39.025Z,6.46
2022-11-06T06:56:39.013Z,6.50
2022-11-06T06:57:39.001Z,6.55
2022-11-06T06:58:38.995Z,6.53
2022-11-06T06:59:39.006Z,6.61
2022-11-06T07:00:39.131Z,6.85
2022-11-06T07:01:39.094Z,6.78
2022-11-06T07:02:38.979Z,6.81
2022-11-06T07:03:38.965Z,6.78
2022-11-06T07:04:38.957Z,6.92
2022-11-06T07:05:39.004Z,7.00
2022-11-06T07:06:38.952Z,6.97
2022-11-06T07:07:38.945Z,7.03
2022-11-06T07:08:38.965Z,7.07
2022-11-06T07:09:39.096Z,7.08
2022-11-06T07:10:38.935Z,7.07
2022-11-06T07:11:39.045Z,7.19
2022-11-06T07:12:38.921Z,7.06
2022-11-06T07:13:38.926Z,7.15
2022-11-06T07:14:38.916Z,7.15
2022-11-06T07:15:38.914Z,7.16
2022-11-06T07:16:38.927Z,7.36
2022-11-06T07:17:38.882Z,7.25
2022-11-06T07:18:38.891Z,7.28
2022-11-06T07:20:11.620Z,7.33
2022-11-06T07:20:38.858Z,7.34
2022-11-06T07:21:38.860Z,7.34
2022-11-06T07:22:38.892Z,7.40
2022-11-06T07:23:38.871Z,8.10
2022-11-06T07:24:38.848Z,8.39
2022-11-06T07:25:38.847Z,8.67
2022-11-06T07:26:38.836Z,9.03
2022-11-06T07:27:38.851Z,8.92
2022-11-06T07:28:38.808Z,8.70
2022-11-06T07:29:38.801Z,9.14
2022-11-06T07:30:38.807Z,9.45
2022-11-06T07:31:38.816Z,10.05
2022-11-06T07:32:38.779Z,10.38
2022-11-06T07:33:38.808Z,10.67
2022-11-06T07:34:38.782Z,11.31
2022-11-06T07:35:38.784Z,11.85
2022-11-06T07:36:38.773Z,12.36
2022-11-06T07:37:38.769Z,12.86
2022-11-06T07:38:38.855Z,13.27
2022-11-06T07:39:38.743Z,13.82
2022-11-06T07:40:38.756Z,14.18
2022-11-06T07:41:38.738Z,14.30
2022-11-06T07:42:43.265Z,14.58
2022-11-06T07:43:41.166Z,14.97
2022-11-06T07:44:38.734Z,14.56
2022-11-06T07:45:38.708Z,14.44
2022-11-06T07:46:38.706Z,14.70
2022-11-06T07:47:38.715Z,14.64
2022-11-06T07:48:38.685Z,13.98
2022-11-06T07:49:39.121Z,14.41
2022-11-06T07:50:38.682Z,14.13
2022-11-06T07:51:38.668Z,14.41
2022-11-06T07:52:38.650Z,15.10
2022-11-06T07:53:38.658Z,15.11
2022-11-06T07:54:38.773Z,14.97
2022-11-06T07:55:42.228Z,15.11
2022-11-06T07:56:39.633Z,15.50
2022-11-06T07:57:38.624Z,16.22
2022-11-06T07:58:38.633Z,16.87
2022-11-06T07:59:38.655Z,17.19
2022-11-06T08:00:39.148Z,17.78
2022-11-06T08:01:38.733Z,18.28
2022-11-06T08:02:38.648Z,18.13
2022-11-06T08:03:38.604Z,18.23
2022-11-06T08:04:38.584Z,18.85
2022-11-06T08:05:38.594Z,18.58
2022-11-06T08:06:38.592Z,18.06
2022-11-06T08:07:38.587Z,17.14
2022-11-06T08:08:38.578Z,16.98
2022-11-06T08:09:38.557Z,16.98
2022-11-06T08:10:38.564Z,17.28
2022-11-06T08:11:38.682Z,17.71
2022-11-06T08:12:38.538Z,17.91
2022-11-06T08:13:38.548Z,18.23
2022-11-06T08:14:41.405Z,18.24
2022-11-06T08:15:40.066Z,17.87
2022-11-06T08:16:38.540Z,18.01
2022-11-06T08:17:38.510Z,18.31
2022-11-06T08:18:38.497Z,18.11
2022-11-06T08:19:38.511Z,18.36
2022-11-06T08:20:38.494Z,18.27
2022-11-06T08:21:38.495Z,18.24
2022-11-06T08:22:38.598Z,17.83
2022-11-06T08:23:38.478Z,18.08
2022-11-06T08:24:38.486Z,18.49
2022-11-06T08:25:38.478Z,18.66
2022-11-06T08:26:38.449Z,19.13
2022-11-06T08:27:38.578Z,18.97
2022-11-06T08:28:38.446Z,19.19
2022-11-06T08:29:41.560Z,19.74
2022-11-06T08:30:40.147Z,19.99
2022-11-06T08:31:38.427Z,20.39
2022-11-06T08:32:38.438Z,20.44
2022-11-06T08:33:38.504Z,20.82
2022-11-06T08:34:39.427Z,20.67
2022-11-06T08:35:38.417Z,20.09
2022-11-06T08:36:38.409Z,19.68
2022-11-06T08:37:38.398Z,18.94
2022-11-06T08:38:38.526Z,19.01
2022-11-06T08:39:38.476Z,19.54
2022-11-06T08:40:38.382Z,19.84
2022-11-06T08:41:38.383Z,20.42
2022-11-06T08:42:38.372Z,20.71
2022-11-06T08:43:38.370Z,21.07
2022-11-06T08:44:38.473Z,20.12
2022-11-06T08:45:38.357Z,20.32
2022-11-06T08:46:38.371Z,20.29
2022-11-06T08:47:38.359Z,19.90
2022-11-06T08:48:38.361Z,19.00
2022-11-06T08:49:38.387Z,18.51
2022-11-06T08:50:38.346Z,19.09
2022-11-06T08:51:38.335Z,19.07
2022-11-06T08:52:38.356Z,19.23
2022-11-06T08:53:38.412Z,19.77
2022-11-06T08:54:38.335Z,20.11
2022-11-06T08:55:38.430Z,20.08
2022-11-06T08:56:38.309Z,20.11
2022-11-06T08:57:38.319Z,20.58
2022-11-06T08:58:38.294Z,20.56
2022-11-06T08:59:38.301Z,20.33
2022-11-06T09:00:38.502Z,19.09
2022-11-06T09:01:38.463Z,18.86
2022-11-06T09:02:38.305Z,19.20
2022-11-06T09:03:38.259Z,19.72
2022-11-06T09:04:41.306Z,20.23
2022-11-06T09:05:39.276Z,20.61
2022-11-06T09:06:38.259Z,20.70
2022-11-06T09:07:38.258Z,20.60
2022-11-06T09:08:38.251Z,20.05
2022-11-06T09:09:38.241Z,19.77
2022-11-06T09:10:38.252Z,19.94
2022-11-06T09:11:38.252Z,18.98
2022-11-06T09:12:38.238Z,18.38
2022-11-06T09:13:38.233Z,18.38
2022-11-06T09:14:38.219Z,18.33
2022-11-06T09:15:38.211Z,19.00
2022-11-06T09:16:38.225Z,19.81
2022-11-06T09:17:38.252Z,19.86
2022-11-06T09:18:38.218Z,20.26
2022-11-06T09:19:38.177Z,20.44
2022-11-06T09:20:38.587Z,20.42
2022-11-06T09:21:38.174Z,20.64
2022-11-06T09:22:38.289Z,20.53
2022-11-06T09:23:38.200Z,20.46
2022-11-06T09:25:02.108Z,20.61
2022-11-06T09:25:40.166Z,21.32
2022-11-06T09:26:38.159Z,21.97
2022-11-06T09:27:38.238Z,22.40
2022-11-06T09:28:38.146Z,22.81
2022-11-06T09:29:38.143Z,22.92
2022-11-06T09:30:38.140Z,23.06
2022-11-06T09:31:38.113Z,22.92
2022-11-06T09:32:38.107Z,21.41
2022-11-06T09:33:38.131Z,20.70
2022-11-06T09:34:38.106Z,21.32
2022-11-06T09:35:38.104Z,21.81
2022-11-06T09:36:38.097Z,21.75
2022-11-06T09:37:38.097Z,20.95
2022-11-06T09:38:38.213Z,21.25
2022-11-06T09:39:38.089Z,21.41
2022-11-06T09:40:38.068Z,21.65
2022-11-06T09:41:38.066Z,21.48
2022-11-06T09:42:38.061Z,21.16
2022-11-06T09:44:03.676Z,20.58
2022-11-06T09:44:39.158Z,20.42
2022-11-06T09:45:38.053Z,21.18
2022-11-06T09:46:38.047Z,21.78
2022-11-06T09:47:38.036Z,22.07
2022-11-06T09:48:38.035Z,21.98
2022-11-06T09:49:38.045Z,21.07
2022-11-06T09:50:38.123Z,20.97
2022-11-06T09:51:38.001Z,20.80
2022-11-06T09:52:38.009Z,20.85
2022-11-06T09:53:37.994Z,19.70
2022-11-06T09:54:37.990Z,18.91
2022-11-06T09:55:38.016Z,19.08
2022-11-06T09:56:37.984Z,19.70
2022-11-06T09:57:37.990Z,20.37
2022-11-06T09:58:37.972Z,21.03
2022-11-06T09:59:37.966Z,20.82
2022-11-06T10:00:37.969Z,20.15
2022-11-06T10:01:38.109Z,19.74
2022-11-06T10:02:38.031Z,19.00
2022-11-06T10:03:37.956Z,19.56
2022-11-06T10:04:37.945Z,20.80
2022-11-06T10:05:37.941Z,21.43
2022-11-06T10:06:37.984Z,22.25
2022-11-06T10:07:37.908Z,21.65
2022-11-06T10:08:37.965Z,21.90
2022-11-06T10:09:38.175Z,21.43
2022-11-06T10:10:37.913Z,20.33
2022-11-06T10:11:37.904Z,19.12
2022-11-06T10:12:38.031Z,19.57
2022-11-06T10:13:37.922Z,18.54
2022-11-06T10:14:37.878Z,17.56
2022-11-06T10:15:37.893Z,17.12
2022-11-06T10:16:37.869Z,17.91
2022-11-06T10:17:37.920Z,18.36
2022-11-06T10:18:37.859Z,17.38
2022-11-06T10:19:37.849Z,18.45
2022-11-06T10:20:37.850Z,19.50
2022-11-06T10:21:37.844Z,20.34
2022-11-06T10:22:37.852Z,19.77
2022-11-06T10:23:37.943Z,20.56
2022-11-06T10:24:37.847Z,21.00
2022-11-06T10:25:37.823Z,21.08
2022-11-06T10:26:37.830Z,21.51
2022-11-06T10:27:37.807Z,21.77
2022-11-06T10:28:37.947Z,21.56
2022-11-06T10:29:37.805Z,21.22
2022-11-06T10:30:37.798Z,21.38
2022-11-06T10:31:37.853Z,21.05
2022-11-06T10:32:37.786Z,20.52
2022-11-06T10:33:37.800Z,20.73
2022-11-06T10:34:37.789Z,20.29
2022-11-06T10:35:37.788Z,20.60
2022-11-06T10:36:37.762Z,20.44
2022-11-06T10:37:37.749Z,20.36
2022-11-06T10:38:37.758Z,20.70
2022-11-06T10:39:37.852Z,19.96
2022-11-06T10:40:37.737Z,20.17
2022-11-06T10:41:37.809Z,20.30
2022-11-06T10:42:38.547Z,20.04
2022-11-06T10:43:38.716Z,20.75
2022-11-06T10:44:37.768Z,20.88
2022-11-06T10:45:37.775Z,21.40
2022-11-06T10:46:37.728Z,21.82
2022-11-06T10:47:37.683Z,21.69
2022-11-06T10:48:41.365Z,21.77
2022-11-06T10:49:37.705Z,20.48
2022-11-06T10:50:38.674Z,18.57
2022-11-06T10:51:37.660Z,18.64
2022-11-06T10:52:37.683Z,17.83
2022-11-06T10:53:37.678Z,18.58
2022-11-06T10:54:37.671Z,19.87
2022-11-06T10:55:37.678Z,20.60
2022-11-06T10:56:37.812Z,21.25
2022-11-06T10:57:37.658Z,22.07
2022-11-06T10:58:37.636Z,22.38
2022-11-06T10:59:37.663Z,22.88
2022-11-06T11:00:37.722Z,22.28
2022-11-06T11:01:37.936Z,20.23
2022-11-06T11:02:37.713Z,19.63
2022-11-06T11:03:37.601Z,18.79
2022-11-06T11:04:37.625Z,19.44
2022-11-06T11:05:37.598Z,19.71
2022-11-06T11:06:37.610Z,18.79
2022-11-06T11:07:37.605Z,19.13
2022-11-06T11:08:37.570Z,19.34
2022-11-06T11:09:37.592Z,20.12
2022-11-06T11:10:37.561Z,21.04
2022-11-06T11:11:37.554Z,21.73
2022-11-06T11:12:37.685Z,22.07
2022-11-06T11:13:37.581Z,22.00
2022-11-06T11:14:37.546Z,22.40
2022-11-06T11:15:37.531Z,22.13
2022-11-06T11:16:37.558Z,21.84
2022-11-06T11:17:37.526Z,21.58
2022-11-06T11:18:37.561Z,22.06
2022-11-06T11:19:37.526Z,22.06
2022-11-06T11:20:37.521Z,21.44
2022-11-06T11:21:37.537Z,21.07
2022-11-06T11:22:37.544Z,21.22
2022-11-06T11:23:37.613Z,21.67
2022-11-06T11:24:37.509Z,21.66
2022-11-06T11:25:37.482Z,21.55
2022-11-06T11:26:37.477Z,21.67
2022-11-06T11:27:37.485Z,21.22
2022-11-06T11:28:37.519Z,21.38
2022-11-06T11:29:37.495Z,21.80
2022-11-06T11:30:37.457Z,21.94
2022-11-06T11:31:37.479Z,21.62
2022-11-06T11:32:37.563Z,21.25
2022-11-06T11:33:37.476Z,20.09
2022-11-06T11:34:37.555Z,19.84
2022-11-06T11:35:37.429Z,20.34
2022-11-06T11:36:37.427Z,20.93
2022-11-06T11:37:37.419Z,19.89
2022-11-06T11:38:38.204Z,20.12
2022-11-06T11:39:37.387Z,20.82
2022-11-06T11:40:37.543Z,20.80
2022-11-06T11:41:37.430Z,19.68
2022-11-06T11:42:37.398Z,19.38
2022-11-06T11:43:37.368Z,19.70
2022-11-06T11:44:37.377Z,19.54
2022-11-06T11:45:38.349Z,19.68
2022-11-06T11:46:37.435Z,19.22
2022-11-06T11:47:37.344Z,19.56
2022-11-06T11:48:37.349Z,20.00
2022-11-06T11:49:37.340Z,20.44
2022-11-06T11:50:37.348Z,20.08
2022-11-06T11:51:37.385Z,18.76
2022-11-06T11:52:37.326Z,18.33
2022-11-06T11:53:37.367Z,18.26
2022-11-06T11:54:37.375Z,17.78
2022-11-06T11:55:37.317Z,18.57
2022-11-06T11:57:03.003Z,19.75
2022-11-06T11:57:38.312Z,20.46
2022-11-06T11:58:37.312Z,20.88
2022-11-06T11:59:37.283Z,21.03
2022-11-06T12:00:37.304Z,20.26
2022-11-06T12:01:37.349Z,18.51
2022-11-06T12:02:37.482Z,18.60
2022-11-06T12:03:37.300Z,18.64
2022-11-06T12:04:37.279Z,17.49
2022-11-06T12:05:37.294Z,17.14
2022-11-06T12:06:37.261Z,17.63
2022-11-06T12:07:40.791Z,18.46
2022-11-06T12:08:38.256Z,18.13
2022-11-06T12:09:37.269Z,18.68
2022-11-06T12:10:37.248Z,19.09
2022-11-06T12:11:37.224Z,18.46
2022-11-06T12:12:37.262Z,18.71
2022-11-06T12:13:37.241Z,18.82
2022-11-06T12:14:37.238Z,19.87
2022-11-06T12:15:37.246Z,19.94
2022-11-06T12:16:37.219Z,20.14
2022-11-06T12:17:37.210Z,19.87
2022-11-06T12:18:37.260Z,20.33
2022-11-06T12:19:37.179Z,20.29
2022-11-06T12:20:37.199Z,20.42
2022-11-06T12:21:37.214Z,20.09
2022-11-06T12:22:37.192Z,18.81
2022-11-06T12:23:37.164Z,18.66
2022-11-06T12:24:37.299Z,19.16
2022-11-06T12:25:37.172Z,19.60
2022-11-06T12:26:37.161Z,19.77
2022-11-06T12:27:37.159Z,20.15
2022-11-06T12:28:37.159Z,19.84
2022-11-06T12:29:37.259Z,19.71
2022-11-06T12:30:37.133Z,19.94
2022-11-06T12:31:37.141Z,19.34
2022-11-06T12:32:37.130Z,17.62
2022-11-06T12:34:05.181Z,17.20
2022-11-06T12:34:39.131Z,17.24
2022-11-06T12:35:37.104Z,17.16
2022-11-06T12:36:37.111Z,17.68
2022-11-06T12:37:37.107Z,17.04
2022-11-06T12:38:37.086Z,16.57
2022-11-06T12:39:37.085Z,16.29
2022-11-06T12:40:37.118Z,16.70
2022-11-06T12:41:37.067Z,16.80
2022-11-06T12:42:37.081Z,16.92
2022-11-06T12:43:37.063Z,17.09
2022-11-06T12:44:37.286Z,17.34
2022-11-06T12:45:37.296Z,17.46
2022-11-06T12:46:37.036Z,17.06
2022-11-06T12:47:37.046Z,17.10
2022-11-06T12:48:37.045Z,16.98
2022-11-06T12:49:37.063Z,16.42
2022-11-06T12:50:37.023Z,16.08
2022-11-06T12:51:37.139Z,15.19
2022-11-06T12:52:37.011Z,15.08
2022-11-06T12:53:37.014Z,14.87
2022-11-06T12:54:37.005Z,14.83
2022-11-06T12:55:37.097Z,14.64
2022-11-06T12:56:37.005Z,14.67
2022-11-06T12:57:36.983Z,14.67
2022-11-06T12:58:36.969Z,14.37
2022-11-06T12:59:36.981Z,14.23
2022-11-06T13:00:36.999Z,14.27
2022-11-06T13:01:37.160Z,14.22
2022-11-06T13:02:37.190Z,14.49
2022-11-06T13:03:36.963Z,14.92
2022-11-06T13:04:36.971Z,15.12
2022-11-06T13:05:36.968Z,15.58
2022-11-06T13:06:36.933Z,15.60
2022-11-06T13:07:36.968Z,16.28